Emmer-Compascuum, Netherlands
Current Conditions -  °F | °C
As of 11:25 AM on Friday 31 Oct 2014 (Local Time) from EHGG Reporting Station
Clear Clear  
Wind Chill: 57°   Ceiling: Unl
Heat Index: 57°   Visibility: 6mi
Dew Point: 55°   Wind: 10mph
Humidity: 94%   Direction: 210°SSW
Pressure: 30.15"   Gusts: NA
Location:  52.81°N, 7.05°E
Report Text: EHGG 311025Z AUTO 21009KT 170V230 9000 NSC 14/13 Q1021 NOSIG
Loading
Personal Weather Stations






























Interactive Weather Map
Tropical Storm Tracking
New forecast layout! Learn more

10-Day Weather Forecast

Advertisements
Track Severe Weather on mobile